createdAt,value
2022-08-21T00:01:51.485Z,11.60
2022-08-21T00:04:22.398Z,11.50
2022-08-21T00:06:51.777Z,11.40
2022-08-21T00:09:20.954Z,11.40
2022-08-21T00:11:49.115Z,11.40
2022-08-21T00:14:16.938Z,11.40
2022-08-21T00:16:44.089Z,11.50
2022-08-21T00:19:11.506Z,11.40
2022-08-21T00:21:38.361Z,11.40
2022-08-21T00:24:05.896Z,11.30
2022-08-21T00:26:34.538Z,11.30
2022-08-21T00:29:03.891Z,11.20
2022-08-21T00:31:30.904Z,11.40
2022-08-21T00:34:00.701Z,11.20
2022-08-21T00:36:29.495Z,11.20
2022-08-21T00:38:57.110Z,11.20
2022-08-21T00:41:37.274Z,11.20
2022-08-21T00:44:08.574Z,11.20
2022-08-21T00:46:36.250Z,11.10
2022-08-21T00:49:05.399Z,11.10
2022-08-21T00:51:42.821Z,11.00
2022-08-21T00:54:17.989Z,11.00
2022-08-21T00:56:48.915Z,11.00
2022-08-21T00:59:20.109Z,10.90
2022-08-21T01:01:47.851Z,10.90
2022-08-21T01:04:16.633Z,10.90
2022-08-21T01:06:44.257Z,10.80
2022-08-21T01:09:12.714Z,10.80
2022-08-21T01:11:40.705Z,10.80
2022-08-21T01:14:07.774Z,10.70
2022-08-21T01:16:35.283Z,10.70
2022-08-21T01:19:03.193Z,10.70
2022-08-21T01:21:30.037Z,10.60
2022-08-21T01:23:58.357Z,10.60
2022-08-21T01:26:34.138Z,10.60
2022-08-21T01:29:32.848Z,10.60
2022-08-21T01:32:09.923Z,10.60
2022-08-21T01:34:40.664Z,10.50
2022-08-21T01:37:08.138Z,10.50
2022-08-21T01:39:36.614Z,10.60
2022-08-21T01:42:05.362Z,10.70
2022-08-21T01:44:33.467Z,10.50
2022-08-21T01:47:05.018Z,10.40
2022-08-21T01:49:31.903Z,10.50
2022-08-21T01:51:58.777Z,10.50
2022-08-21T01:54:25.610Z,10.50
2022-08-21T01:56:55.336Z,10.40
2022-08-21T01:59:25.112Z,10.40
2022-08-21T02:01:52.169Z,10.50
2022-08-21T02:04:19.078Z,10.30
2022-08-21T02:06:45.993Z,10.30
2022-08-21T02:09:14.971Z,10.30
2022-08-21T02:11:43.417Z,10.30
2022-08-21T02:14:13.811Z,10.20
2022-08-21T02:16:43.206Z,10.20
2022-08-21T02:19:11.040Z,10.10
2022-08-21T02:21:38.189Z,10.10
2022-08-21T02:24:06.404Z,10.00
2022-08-21T02:26:33.718Z,10.00
2022-08-21T02:29:01.211Z,10.00
2022-08-21T02:31:28.159Z,10.00
2022-08-21T02:33:54.961Z,10.00
2022-08-21T02:36:21.954Z,9.90
2022-08-21T02:38:49.044Z,9.90
2022-08-21T02:41:19.754Z,9.90
2022-08-21T02:43:46.622Z,9.80
2022-08-21T02:46:18.270Z,9.80
2022-08-21T02:48:45.373Z,9.80
2022-08-21T02:51:19.438Z,9.80
2022-08-21T02:53:48.445Z,9.80
2022-08-21T02:56:19.727Z,9.80
2022-08-21T02:58:53.460Z,9.80
2022-08-21T03:01:21.441Z,9.80
2022-08-21T03:03:51.746Z,9.70
2022-08-21T03:06:22.607Z,9.70
2022-08-21T03:08:50.197Z,9.60
2022-08-21T03:11:17.481Z,9.60
2022-08-21T03:13:44.361Z,9.50
2022-08-21T03:16:11.481Z,9.40
2022-08-21T03:18:39.002Z,9.40
2022-08-21T03:21:07.908Z,9.40
2022-08-21T03:23:35.101Z,9.40
2022-08-21T03:26:02.299Z,9.50
2022-08-21T03:28:29.572Z,9.50
2022-08-21T03:30:56.584Z,9.40
2022-08-21T03:33:23.979Z,9.50
2022-08-21T03:36:06.523Z,9.50
2022-08-21T03:38:35.894Z,9.50
2022-08-21T03:41:04.502Z,9.50
2022-08-21T03:43:33.079Z,9.60
2022-08-21T03:46:03.117Z,9.40
2022-08-21T03:48:30.608Z,9.40
2022-08-21T03:50:57.550Z,9.50
2022-08-21T03:53:25.485Z,9.40
2022-08-21T03:55:53.590Z,9.40
2022-08-21T03:58:27.698Z,9.40
2022-08-21T04:00:59.553Z,9.40
2022-08-21T04:03:28.971Z,9.40
2022-08-21T04:05:56.479Z,9.40
2022-08-21T04:08:23.482Z,9.40
2022-08-21T04:10:54.484Z,9.40
2022-08-21T04:13:22.095Z,9.50
2022-08-21T04:15:50.105Z,9.50
2022-08-21T04:18:17.892Z,9.60
2022-08-21T04:20:50.152Z,9.70
2022-08-21T04:23:24.035Z,9.80
2022-08-21T04:25:54.288Z,9.90
2022-08-21T04:28:23.114Z,10.00
2022-08-21T04:30:52.948Z,10.00
2022-08-21T04:33:21.756Z,10.10
2022-08-21T04:35:50.422Z,10.10
2022-08-21T04:38:17.550Z,10.10
2022-08-21T04:40:45.390Z,10.10
2022-08-21T04:43:12.805Z,10.10
2022-08-21T04:45:45.327Z,10.10
2022-08-21T04:48:14.893Z,10.10
2022-08-21T04:51:02.310Z,10.00
2022-08-21T04:53:37.171Z,10.00
2022-08-21T04:56:22.217Z,9.90
2022-08-21T04:58:50.722Z,9.90
2022-08-21T05:01:23.451Z,9.90
2022-08-21T05:03:57.334Z,9.90
2022-08-21T05:06:25.907Z,9.80
2022-08-21T05:09:01.996Z,9.90
2022-08-21T05:11:31.875Z,9.90
2022-08-21T05:13:59.372Z,10.00
2022-08-21T05:16:37.430Z,10.00
2022-08-21T05:19:06.517Z,9.90
2022-08-21T05:21:39.345Z,10.00
2022-08-21T05:24:06.413Z,10.00
2022-08-21T05:26:33.816Z,10.20
2022-08-21T05:29:13.024Z,10.40
2022-08-21T05:31:40.001Z,10.50
2022-08-21T05:34:07.716Z,10.80
2022-08-21T05:36:34.780Z,11.40
2022-08-21T05:39:01.870Z,12.00
2022-08-21T05:41:28.777Z,12.70
2022-08-21T05:43:55.662Z,13.30
2022-08-21T05:46:22.666Z,13.90
2022-08-21T05:48:49.816Z,14.30
2022-08-21T05:51:17.409Z,14.90
2022-08-21T05:53:45.627Z,15.50
2022-08-21T05:56:13.970Z,16.00
2022-08-21T05:58:40.872Z,16.60
2022-08-21T06:01:09.810Z,17.10
2022-08-21T06:03:40.848Z,17.60
2022-08-21T06:06:08.658Z,18.00
2022-08-21T06:08:35.790Z,18.30
2022-08-21T06:11:05.524Z,18.60
2022-08-21T06:13:32.958Z,18.90
2022-08-21T06:16:16.369Z,19.10
2022-08-21T06:18:46.445Z,19.20
2022-08-21T06:21:14.561Z,19.50
2022-08-21T06:23:42.658Z,19.80
2022-08-21T06:26:12.850Z,20.10
2022-08-21T06:28:41.235Z,20.70
2022-08-21T06:31:18.995Z,21.20
2022-08-21T06:33:47.102Z,21.70
2022-08-21T06:36:14.376Z,22.30
2022-08-21T06:38:41.716Z,22.70
2022-08-21T06:41:17.588Z,22.90
2022-08-21T06:43:44.882Z,23.20
2022-08-21T06:46:11.701Z,23.50
2022-08-21T06:48:38.587Z,23.80
2022-08-21T06:51:05.925Z,24.00
2022-08-21T06:53:33.894Z,24.40
2022-08-21T06:56:00.749Z,24.80
2022-08-21T06:58:27.819Z,25.40
2022-08-21T07:01:00.099Z,25.80
2022-08-21T07:03:33.589Z,26.20
2022-08-21T07:06:00.516Z,26.80
2022-08-21T07:08:29.026Z,27.30
2022-08-21T07:11:01.154Z,27.80
2022-08-21T07:13:28.806Z,28.20
2022-08-21T07:15:59.126Z,28.50
2022-08-21T07:18:28.781Z,28.70
2022-08-21T07:20:56.417Z,28.80
2022-08-21T07:23:27.388Z,28.90
2022-08-21T07:25:54.877Z,29.50
2022-08-21T07:28:21.918Z,30.10
2022-08-21T07:30:55.698Z,30.60
2022-08-21T07:33:23.676Z,30.90
2022-08-21T07:35:50.811Z,31.30
2022-08-21T07:38:18.967Z,31.70
2022-08-21T07:40:48.442Z,32.20
2022-08-21T07:43:17.766Z,32.80
2022-08-21T07:45:45.728Z,33.20
2022-08-21T07:48:12.840Z,33.70
2022-08-21T07:50:41.624Z,33.90
2022-08-21T07:53:08.549Z,33.90
2022-08-21T07:55:35.791Z,33.70
2022-08-21T07:58:02.799Z,33.80
2022-08-21T08:00:30.169Z,34.10
2022-08-21T08:02:58.389Z,34.20
2022-08-21T08:05:30.711Z,33.70
2022-08-21T08:07:59.152Z,33.40
2022-08-21T08:10:27.374Z,33.20
2022-08-21T08:12:55.905Z,33.40
2022-08-21T08:15:26.945Z,33.40
2022-08-21T08:17:55.813Z,33.40
2022-08-21T08:20:26.015Z,33.60
2022-08-21T08:22:54.282Z,33.60
2022-08-21T08:25:23.992Z,33.50
2022-08-21T08:27:50.923Z,33.40
2022-08-21T08:30:20.443Z,33.30
2022-08-21T08:32:48.620Z,32.00
2022-08-21T08:35:16.305Z,30.50
2022-08-21T08:37:43.817Z,29.60
2022-08-21T08:41:17.880Z,29.20
2022-08-21T08:43:55.190Z,29.40
2022-08-21T08:46:41.813Z,30.70
2022-08-21T08:49:20.416Z,31.40
2022-08-21T08:51:58.154Z,31.20
2022-08-21T08:55:02.914Z,31.30
2022-08-21T08:57:31.396Z,32.20
2022-08-21T09:00:06.019Z,33.00
2022-08-21T09:02:35.080Z,33.70
2022-08-21T09:05:02.471Z,34.10
2022-08-21T09:08:01.914Z,34.20
2022-08-21T09:10:52.851Z,34.30
2022-08-21T09:14:08.625Z,33.50
2022-08-21T09:17:18.650Z,32.10
2022-08-21T09:19:57.494Z,30.10
2022-08-21T09:22:56.830Z,28.90
2022-08-21T09:25:33.770Z,28.20
2022-08-21T09:28:00.627Z,28.20
2022-08-21T09:30:33.235Z,28.60
2022-08-21T09:33:00.971Z,29.10
2022-08-21T09:35:28.086Z,29.60
2022-08-21T09:38:03.933Z,29.60
2022-08-21T09:40:47.021Z,29.40
2022-08-21T09:43:21.195Z,28.70
2022-08-21T09:45:50.740Z,28.20
2022-08-21T09:48:26.885Z,27.90
2022-08-21T09:51:05.762Z,27.60
2022-08-21T09:53:36.022Z,27.40
2022-08-21T09:56:46.661Z,27.20
2022-08-21T09:59:37.153Z,27.20
2022-08-21T10:02:35.034Z,27.90
2022-08-21T10:05:20.066Z,28.70
2022-08-21T10:07:46.940Z,29.20
2022-08-21T10:10:21.566Z,29.60
2022-08-21T10:13:17.796Z,29.30
2022-08-21T10:16:14.115Z,29.80
2022-08-21T10:18:57.146Z,31.30
2022-08-21T10:21:55.426Z,32.10
2022-08-21T10:24:37.926Z,32.50
2022-08-21T10:27:28.724Z,32.20
2022-08-21T10:30:05.062Z,32.40
2022-08-21T10:33:02.321Z,32.80
2022-08-21T10:35:37.995Z,32.80
2022-08-21T10:38:48.739Z,32.40
2022-08-21T10:42:06.033Z,32.40
2022-08-21T10:45:15.005Z,32.40
2022-08-21T10:47:50.055Z,32.60
2022-08-21T10:50:47.538Z,32.80
2022-08-21T10:53:42.349Z,32.90
2022-08-21T10:56:24.273Z,32.90
2022-08-21T10:59:35.355Z,32.60
2022-08-21T11:02:23.068Z,32.40
2022-08-21T11:05:11.093Z,32.00
2022-08-21T11:07:59.504Z,31.70
2022-08-21T11:10:51.345Z,31.40
2022-08-21T11:13:44.368Z,30.80
2022-08-21T11:16:38.544Z,29.80
2022-08-21T11:19:29.388Z,28.80
2022-08-21T11:22:20.995Z,28.30
2022-08-21T11:25:12.635Z,27.90
2022-08-21T11:28:02.281Z,27.60
2022-08-21T11:31:08.886Z,27.40
2022-08-21T11:34:02.580Z,27.30
2022-08-21T11:37:06.686Z,27.30
2022-08-21T11:39:33.421Z,27.20
2022-08-21T11:42:23.334Z,27.00
2022-08-21T11:45:15.631Z,26.80
2022-08-21T11:48:41.046Z,26.60
2022-08-21T11:51:19.286Z,26.50
2022-08-21T11:54:07.211Z,26.30
2022-08-21T11:56:53.095Z,26.20
2022-08-21T11:59:42.234Z,26.10
2022-08-21T12:02:21.929Z,25.90
2022-08-21T12:05:00.258Z,25.90
2022-08-21T12:07:45.609Z,26.10
2022-08-21T12:10:18.247Z,26.30
2022-08-21T12:12:46.489Z,26.50
2022-08-21T12:15:27.176Z,26.80
2022-08-21T12:17:58.064Z,26.90
2022-08-21T12:20:30.634Z,26.90
2022-08-21T12:23:17.080Z,26.70
2022-08-21T12:26:24.488Z,26.60
2022-08-21T12:28:51.723Z,26.50
2022-08-21T12:31:27.867Z,26.40
2022-08-21T12:34:06.671Z,26.30
2022-08-21T12:37:37.695Z,26.30
2022-08-21T12:40:12.755Z,26.30
2022-08-21T12:42:58.668Z,26.10
2022-08-21T12:45:48.749Z,26.10
2022-08-21T12:48:25.121Z,26.10
2022-08-21T12:51:11.860Z,26.30
2022-08-21T12:53:56.736Z,26.40
2022-08-21T12:56:28.177Z,26.50
2022-08-21T12:59:03.021Z,26.60
2022-08-21T13:01:41.895Z,26.80
2022-08-21T13:04:17.925Z,27.10
2022-08-21T13:06:49.915Z,27.30
2022-08-21T13:09:27.225Z,27.30
2022-08-21T13:11:55.212Z,27.20
2022-08-21T13:14:38.346Z,27.20
2022-08-21T13:17:13.009Z,27.30
2022-08-21T13:20:00.274Z,27.40
2022-08-21T13:22:34.025Z,27.50
2022-08-21T13:25:06.551Z,27.50
2022-08-21T13:27:35.311Z,27.70
2022-08-21T13:30:23.987Z,28.00
2022-08-21T13:32:58.076Z,28.10
2022-08-21T13:35:48.277Z,28.10
2022-08-21T13:38:17.388Z,28.10
2022-08-21T13:41:18.674Z,28.40
2022-08-21T13:43:56.860Z,28.50
2022-08-21T13:46:29.257Z,28.30
2022-08-21T13:48:57.332Z,27.80
2022-08-21T13:51:25.064Z,27.40
2022-08-21T13:53:53.951Z,27.00
2022-08-21T13:56:33.724Z,26.80
2022-08-21T13:59:04.753Z,26.60
2022-08-21T14:01:36.724Z,26.40
2022-08-21T14:04:20.337Z,26.30
2022-08-21T14:06:48.016Z,26.30
2022-08-21T14:09:30.243Z,26.50
2022-08-21T14:12:00.140Z,26.60
2022-08-21T14:14:36.231Z,26.70
2022-08-21T14:17:25.317Z,26.80
2022-08-21T14:19:59.620Z,27.00
2022-08-21T14:22:30.062Z,26.90
2022-08-21T14:25:10.277Z,26.70
2022-08-21T14:27:45.766Z,26.60
2022-08-21T14:30:37.973Z,26.50
2022-08-21T14:33:12.861Z,26.40
2022-08-21T14:35:40.996Z,26.00
2022-08-21T14:38:18.667Z,25.90
2022-08-21T14:40:51.810Z,26.10
2022-08-21T14:43:20.410Z,26.20
2022-08-21T14:45:48.142Z,26.30
2022-08-21T14:48:15.394Z,26.50
2022-08-21T14:50:43.085Z,26.60
2022-08-21T14:53:11.522Z,26.50
2022-08-21T14:56:12.831Z,26.50
2022-08-21T14:58:43.695Z,26.70
2022-08-21T15:01:14.949Z,26.90
2022-08-21T15:03:42.898Z,27.00
2022-08-21T15:06:10.616Z,27.00
2022-08-21T15:08:39.018Z,27.00
2022-08-21T15:11:12.118Z,26.90
2022-08-21T15:13:40.797Z,26.60
2022-08-21T15:16:12.327Z,26.50
2022-08-21T15:18:40.064Z,26.50
2022-08-21T15:21:07.211Z,26.60
2022-08-21T15:23:34.659Z,26.60
2022-08-21T15:26:02.172Z,26.70
2022-08-21T15:28:31.771Z,26.90
2022-08-21T15:31:01.808Z,27.00
2022-08-21T15:33:29.741Z,27.20
2022-08-21T15:35:56.997Z,27.30
2022-08-21T15:38:24.629Z,27.40
2022-08-21T15:40:52.669Z,27.30
2022-08-21T15:43:30.653Z,27.30
2022-08-21T15:46:00.621Z,27.30
2022-08-21T15:48:27.918Z,27.30
2022-08-21T15:50:54.833Z,27.30
2022-08-21T15:53:21.821Z,27.00
2022-08-21T15:55:48.790Z,26.90
2022-08-21T15:58:17.996Z,26.70
2022-08-21T16:00:47.761Z,26.50
2022-08-21T16:03:20.695Z,26.40
2022-08-21T16:05:49.950Z,26.30
2022-08-21T16:08:18.005Z,26.10
2022-08-21T16:10:44.895Z,26.00
2022-08-21T16:13:30.236Z,25.90
2022-08-21T16:15:57.275Z,25.50
2022-08-21T16:18:26.576Z,25.40
2022-08-21T16:20:53.701Z,25.20
2022-08-21T16:23:20.626Z,25.10
2022-08-21T16:25:48.806Z,25.00
2022-08-21T16:28:19.192Z,24.90
2022-08-21T16:30:50.381Z,24.80
2022-08-21T16:33:32.289Z,24.70
2022-08-21T16:36:00.475Z,24.60
2022-08-21T16:38:29.467Z,24.50
2022-08-21T16:40:56.706Z,24.40
2022-08-21T16:43:27.114Z,24.30
2022-08-21T16:45:56.763Z,24.30
2022-08-21T16:48:24.873Z,24.20
2022-08-21T16:50:51.787Z,24.20
2022-08-21T16:53:18.706Z,24.20
2022-08-21T16:55:47.290Z,24.20
2022-08-21T16:58:37.918Z,24.10
2022-08-21T17:01:10.744Z,24.10
2022-08-21T17:03:42.551Z,24.00
2022-08-21T17:06:10.543Z,24.00
2022-08-21T17:08:38.150Z,23.90
2022-08-21T17:11:37.366Z,23.80
2022-08-21T17:14:13.891Z,23.80
2022-08-21T17:16:46.428Z,23.70
2022-08-21T17:19:14.347Z,23.60
2022-08-21T17:21:41.564Z,23.50
2022-08-21T17:24:08.652Z,23.50
2022-08-21T17:26:36.911Z,23.40
2022-08-21T17:29:09.776Z,23.30
2022-08-21T17:31:40.023Z,23.20
2022-08-21T17:34:07.901Z,23.20
2022-08-21T17:36:35.084Z,23.10
2022-08-21T17:39:02.514Z,23.00
2022-08-21T17:41:29.467Z,23.00
2022-08-21T17:43:56.393Z,22.90
2022-08-21T17:46:28.132Z,22.80
2022-08-21T17:48:56.800Z,22.70
2022-08-21T17:51:24.159Z,22.60
2022-08-21T17:53:50.992Z,22.60
2022-08-21T17:56:19.861Z,22.60
2022-08-21T17:58:50.553Z,22.40
2022-08-21T18:01:19.414Z,22.30
2022-08-21T18:03:47.488Z,22.30
2022-08-21T18:06:17.975Z,22.10
2022-08-21T18:08:46.209Z,22.00
2022-08-21T18:11:23.141Z,21.80
2022-08-21T18:13:54.130Z,21.70
2022-08-21T18:16:22.804Z,21.60
2022-08-21T18:18:51.637Z,21.30
2022-08-21T18:21:20.257Z,21.20
2022-08-21T18:23:47.708Z,21.00
2022-08-21T18:26:21.968Z,20.90
2022-08-21T18:28:48.985Z,20.80
2022-08-21T18:31:16.036Z,20.60
2022-08-21T18:33:52.846Z,20.40
2022-08-21T18:36:27.936Z,20.30
2022-08-21T18:39:13.480Z,20.10
2022-08-21T18:41:46.069Z,20.00
2022-08-21T18:44:15.673Z,19.90
2022-08-21T18:46:49.195Z,19.80
2022-08-21T18:49:16.251Z,19.80
2022-08-21T18:51:45.370Z,19.70
2022-08-21T18:54:13.156Z,19.60
2022-08-21T18:56:41.715Z,19.60
2022-08-21T18:59:10.872Z,19.60
2022-08-21T19:01:38.671Z,19.60
2022-08-21T19:04:08.949Z,19.60
2022-08-21T19:06:36.456Z,19.70
2022-08-21T19:09:09.426Z,19.80
2022-08-21T19:11:41.018Z,19.80
2022-08-21T19:14:15.266Z,19.90
2022-08-21T19:19:32.517Z,20.00
2022-08-21T19:21:59.661Z,20.10
2022-08-21T19:24:26.640Z,20.10
2022-08-21T19:26:55.885Z,20.10
2022-08-21T19:29:34.667Z,20.10
2022-08-21T19:32:05.910Z,20.10
2022-08-21T19:34:34.982Z,20.10
2022-08-21T19:37:03.488Z,20.00
2022-08-21T19:39:39.493Z,20.00
2022-08-21T19:42:10.202Z,19.90
2022-08-21T19:44:39.574Z,19.90
2022-08-21T19:47:19.079Z,19.80
2022-08-21T19:49:54.155Z,19.70
2022-08-21T19:52:22.820Z,19.60
2022-08-21T19:54:51.913Z,19.40
2022-08-21T19:57:19.298Z,19.30
2022-08-21T19:59:47.005Z,19.30
2022-08-21T20:02:17.484Z,19.20
2022-08-21T20:07:32.136Z,18.90
2022-08-21T20:09:59.256Z,18.80
2022-08-21T20:12:26.590Z,18.60
2022-08-21T20:14:55.168Z,18.50
2022-08-21T20:17:22.798Z,18.40
2022-08-21T20:19:54.409Z,18.20
2022-08-21T20:22:22.743Z,18.10
2022-08-21T20:24:51.538Z,17.90
2022-08-21T20:27:27.770Z,17.70
2022-08-21T20:29:55.435Z,17.50
2022-08-21T20:32:22.693Z,17.40
2022-08-21T20:34:52.112Z,17.20
2022-08-21T20:37:35.880Z,17.10
2022-08-21T20:40:10.500Z,17.00
2022-08-21T20:45:33.181Z,16.90
2022-08-21T20:48:16.866Z,16.90
2022-08-21T20:51:00.731Z,16.80
2022-08-21T20:53:54.445Z,16.70
2022-08-21T20:56:38.269Z,16.60
2022-08-21T20:59:40.526Z,16.50
2022-08-21T21:02:16.299Z,16.40
2022-08-21T21:05:21.973Z,16.30
2022-08-21T21:08:02.055Z,16.30
2022-08-21T21:10:46.965Z,16.30
2022-08-21T21:13:28.597Z,16.20
2022-08-21T21:16:07.489Z,16.10
2022-08-21T21:18:53.792Z,16.20
2022-08-21T21:21:37.357Z,16.20
2022-08-21T21:24:16.024Z,16.20
2022-08-21T21:26:59.842Z,16.20
2022-08-21T21:29:37.130Z,16.10
2022-08-21T21:32:06.000Z,16.10
2022-08-21T21:34:46.371Z,16.00
2022-08-21T21:37:37.358Z,16.00
2022-08-21T21:40:46.358Z,16.00
2022-08-21T21:43:54.113Z,15.90
2022-08-21T21:46:27.020Z,15.90
2022-08-21T21:49:32.995Z,15.90
2022-08-21T21:52:10.044Z,15.80
2022-08-21T21:54:58.333Z,15.70
2022-08-21T22:00:42.733Z,15.60
2022-08-21T22:03:41.140Z,15.70
2022-08-21T22:06:22.732Z,15.70
2022-08-21T22:09:10.432Z,15.60
2022-08-21T22:12:01.964Z,15.60
2022-08-21T22:14:41.505Z,15.60
2022-08-21T22:17:35.907Z,15.60
2022-08-21T22:20:24.049Z,15.60
2022-08-21T22:22:55.957Z,15.60
2022-08-21T22:25:33.207Z,15.60
2022-08-21T22:28:13.645Z,15.60
2022-08-21T22:30:47.413Z,15.60
2022-08-21T22:33:22.800Z,15.60
2022-08-21T22:35:54.918Z,15.70
2022-08-21T22:38:27.786Z,15.50
2022-08-21T22:41:19.149Z,15.50
2022-08-21T22:49:50.390Z,15.30
2022-08-21T22:52:44.750Z,15.30
2022-08-21T22:55:26.814Z,15.30
2022-08-21T22:58:27.464Z,15.30
2022-08-21T23:01:21.240Z,15.30
2022-08-21T23:03:57.240Z,15.30
2022-08-21T23:06:46.538Z,15.30
2022-08-21T23:09:36.356Z,15.30
2022-08-21T23:12:32.957Z,15.20
2022-08-21T23:15:10.637Z,15.10
2022-08-21T23:18:03.010Z,15.00
2022-08-21T23:20:57.637Z,14.90
2022-08-21T23:23:31.372Z,14.90
2022-08-21T23:26:52.152Z,14.80
2022-08-21T23:30:01.957Z,14.80
2022-08-21T23:33:30.174Z,14.80
2022-08-21T23:36:52.950Z,14.70
2022-08-21T23:39:59.750Z,14.70
2022-08-21T23:42:36.288Z,14.60
2022-08-21T23:45:41.007Z,14.60
2022-08-21T23:48:51.925Z,14.50
2022-08-21T23:51:24.231Z,14.50
2022-08-21T23:54:20.825Z,14.40
2022-08-21T23:57:31.352Z,14.40
